sensor_id;sensor_type;location;lat;lon;timestamp;temperature;humidity
23335;DHT22;11839;48.598;8.870;2023-09-19T00:02:18;18.80;99.90
23335;DHT22;11839;48.598;8.870;2023-09-19T00:04:44;18.80;99.90
23335;DHT22;11839;48.598;8.870;2023-09-19T00:07:11;18.60;99.90
23335;DHT22;11839;48.598;8.870;2023-09-19T00:09:39;18.70;99.90
23335;DHT22;11839;48.598;8.870;2023-09-19T00:12:07;18.80;99.90
23335;DHT22;11839;48.598;8.870;2023-09-19T00:14:34;19.00;99.90
23335;DHT22;11839;48.598;8.870;2023-09-19T00:17:03;18.70;99.90
23335;DHT22;11839;48.598;8.870;2023-09-19T00:19:33;18.90;99.90
23335;DHT22;11839;48.598;8.870;2023-09-19T00:22:01;18.80;99.90
23335;DHT22;11839;48.598;8.870;2023-09-19T00:24:27;18.80;99.90
23335;DHT22;11839;48.598;8.870;2023-09-19T00:26:54;18.70;99.90
23335;DHT22;11839;48.598;8.870;2023-09-19T00:29:22;18.60;99.90
23335;DHT22;11839;48.598;8.870;2023-09-19T00:31:49;18.50;99.90
23335;DHT22;11839;48.598;8.870;2023-09-19T00:34:18;18.40;99.90
23335;DHT22;11839;48.598;8.870;2023-09-19T00:36:45;18.70;99.90
23335;DHT22;11839;48.598;8.870;2023-09-19T00:39:12;18.70;99.90
23335;DHT22;11839;48.598;8.870;2023-09-19T00:41:39;18.70;99.90
23335;DHT22;11839;48.598;8.870;2023-09-19T00:44:06;18.60;99.90
23335;DHT22;11839;48.598;8.870;2023-09-19T00:46:34;18.80;99.90
23335;DHT22;11839;48.598;8.870;2023-09-19T00:49:02;18.70;99.90
23335;DHT22;11839;48.598;8.870;2023-09-19T00:51:31;18.90;99.90
23335;DHT22;11839;48.598;8.870;2023-09-19T00:53:58;18.90;99.90
23335;DHT22;11839;48.598;8.870;2023-09-19T00:56:25;18.90;99.90
23335;DHT22;11839;48.598;8.870;2023-09-19T00:58:52;19.00;99.90
23335;DHT22;11839;48.598;8.870;2023-09-19T01:01:19;19.00;99.90
23335;DHT22;11839;48.598;8.870;2023-09-19T01:03:46;19.00;99.90
23335;DHT22;11839;48.598;8.870;2023-09-19T01:06:13;19.00;99.90
23335;DHT22;11839;48.598;8.870;2023-09-19T01:08:41;19.00;99.90
23335;DHT22;11839;48.598;8.870;2023-09-19T01:11:12;18.80;99.90
23335;DHT22;11839;48.598;8.870;2023-09-19T01:13:48;19.00;99.90
23335;DHT22;11839;48.598;8.870;2023-09-19T01:16:22;19.30;99.90
23335;DHT22;11839;48.598;8.870;2023-09-19T01:18:59;19.30;99.90
23335;DHT22;11839;48.598;8.870;2023-09-19T01:21:34;19.20;99.90
23335;DHT22;11839;48.598;8.870;2023-09-19T01:24:43;19.20;99.90
23335;DHT22;11839;48.598;8.870;2023-09-19T01:27:34;19.20;99.90
23335;DHT22;11839;48.598;8.870;2023-09-19T01:30:14;19.00;99.90
23335;DHT22;11839;48.598;8.870;2023-09-19T01:32:44;19.20;99.90
23335;DHT22;11839;48.598;8.870;2023-09-19T01:35:11;19.30;99.90
23335;DHT22;11839;48.598;8.870;2023-09-19T01:37:38;19.20;99.90
23335;DHT22;11839;48.598;8.870;2023-09-19T01:40:10;19.30;99.90
23335;DHT22;11839;48.598;8.870;2023-09-19T01:42:45;19.40;99.90
23335;DHT22;11839;48.598;8.870;2023-09-19T01:45:21;19.40;99.90
23335;DHT22;11839;48.598;8.870;2023-09-19T01:47:53;19.30;99.90
23335;DHT22;11839;48.598;8.870;2023-09-19T01:50:29;19.20;99.90
23335;DHT22;11839;48.598;8.870;2023-09-19T01:53:01;19.30;99.90
23335;DHT22;11839;48.598;8.870;2023-09-19T01:55:30;19.30;99.90
23335;DHT22;11839;48.598;8.870;2023-09-19T01:58:07;19.30;99.90
23335;DHT22;11839;48.598;8.870;2023-09-19T02:00:37;19.30;99.90
23335;DHT22;11839;48.598;8.870;2023-09-19T02:03:07;19.30;99.90
23335;DHT22;11839;48.598;8.870;2023-09-19T02:05:35;19.30;99.90
23335;DHT22;11839;48.598;8.870;2023-09-19T02:08:01;19.20;99.90
23335;DHT22;11839;48.598;8.870;2023-09-19T02:10:29;19.20;99.90
23335;DHT22;11839;48.598;8.870;2023-09-19T02:12:56;19.10;99.90
23335;DHT22;11839;48.598;8.870;2023-09-19T02:15:24;18.90;99.90
23335;DHT22;11839;48.598;8.870;2023-09-19T02:17:52;19.00;99.90
23335;DHT22;11839;48.598;8.870;2023-09-19T02:20:19;18.90;99.90
23335;DHT22;11839;48.598;8.870;2023-09-19T02:22:46;18.90;99.90
23335;DHT22;11839;48.598;8.870;2023-09-19T02:25:15;18.80;99.90
23335;DHT22;11839;48.598;8.870;2023-09-19T02:27:42;18.70;99.90
23335;DHT22;11839;48.598;8.870;2023-09-19T02:30:10;18.60;99.90
23335;DHT22;11839;48.598;8.870;2023-09-19T02:32:37;18.60;99.90
23335;DHT22;11839;48.598;8.870;2023-09-19T02:35:07;18.80;99.90
23335;DHT22;11839;48.598;8.870;2023-09-19T02:37:36;18.70;99.90
23335;DHT22;11839;48.598;8.870;2023-09-19T02:40:04;18.70;99.90
23335;DHT22;11839;48.598;8.870;2023-09-19T02:42:44;18.80;99.90
23335;DHT22;11839;48.598;8.870;2023-09-19T02:45:14;18.90;99.90
23335;DHT22;11839;48.598;8.870;2023-09-19T02:47:42;18.80;99.90
23335;DHT22;11839;48.598;8.870;2023-09-19T02:50:10;18.80;99.90
23335;DHT22;11839;48.598;8.870;2023-09-19T02:52:38;18.50;99.90
23335;DHT22;11839;48.598;8.870;2023-09-19T02:55:05;18.50;99.90
23335;DHT22;11839;48.598;8.870;2023-09-19T02:57:34;18.70;99.90
23335;DHT22;11839;48.598;8.870;2023-09-19T03:00:07;18.40;99.90
23335;DHT22;11839;48.598;8.870;2023-09-19T03:02:36;18.60;99.90
23335;DHT22;11839;48.598;8.870;2023-09-19T03:05:04;18.70;99.90
23335;DHT22;11839;48.598;8.870;2023-09-19T03:07:33;18.90;99.90
23335;DHT22;11839;48.598;8.870;2023-09-19T03:10:00;19.00;99.90
23335;DHT22;11839;48.598;8.870;2023-09-19T03:12:27;19.20;99.90
23335;DHT22;11839;48.598;8.870;2023-09-19T03:14:54;19.20;99.90
23335;DHT22;11839;48.598;8.870;2023-09-19T03:17:21;19.10;99.90
23335;DHT22;11839;48.598;8.870;2023-09-19T03:19:47;19.00;99.90
23335;DHT22;11839;48.598;8.870;2023-09-19T03:22:14;18.80;99.90
23335;DHT22;11839;48.598;8.870;2023-09-19T03:24:43;18.70;99.90
23335;DHT22;11839;48.598;8.870;2023-09-19T03:27:10;18.90;99.90
23335;DHT22;11839;48.598;8.870;2023-09-19T03:29:41;18.70;99.90
23335;DHT22;11839;48.598;8.870;2023-09-19T03:32:08;18.80;99.90
23335;DHT22;11839;48.598;8.870;2023-09-19T03:34:36;18.80;99.90
23335;DHT22;11839;48.598;8.870;2023-09-19T03:37:06;18.60;99.90
23335;DHT22;11839;48.598;8.870;2023-09-19T03:39:33;18.70;99.90
23335;DHT22;11839;48.598;8.870;2023-09-19T03:42:01;18.50;99.90
23335;DHT22;11839;48.598;8.870;2023-09-19T03:44:29;18.60;99.90
23335;DHT22;11839;48.598;8.870;2023-09-19T03:46:56;18.70;99.90
23335;DHT22;11839;48.598;8.870;2023-09-19T03:49:23;18.80;99.90
23335;DHT22;11839;48.598;8.870;2023-09-19T03:51:50;18.80;99.90
23335;DHT22;11839;48.598;8.870;2023-09-19T03:54:17;18.80;99.90
23335;DHT22;11839;48.598;8.870;2023-09-19T03:56:44;18.60;99.90
23335;DHT22;11839;48.598;8.870;2023-09-19T03:59:13;18.40;99.90
23335;DHT22;11839;48.598;8.870;2023-09-19T04:01:40;18.50;99.90
23335;DHT22;11839;48.598;8.870;2023-09-19T04:04:07;18.50;99.90
23335;DHT22;11839;48.598;8.870;2023-09-19T04:06:34;18.40;99.90
23335;DHT22;11839;48.598;8.870;2023-09-19T04:09:01;18.60;99.90
23335;DHT22;11839;48.598;8.870;2023-09-19T04:11:29;18.40;99.90
23335;DHT22;11839;48.598;8.870;2023-09-19T04:13:56;18.40;99.90
23335;DHT22;11839;48.598;8.870;2023-09-19T04:16:24;18.60;99.90
23335;DHT22;11839;48.598;8.870;2023-09-19T04:18:51;18.60;99.90
23335;DHT22;11839;48.598;8.870;2023-09-19T04:21:18;18.70;99.90
23335;DHT22;11839;48.598;8.870;2023-09-19T04:23:45;18.80;99.90
23335;DHT22;11839;48.598;8.870;2023-09-19T04:26:12;18.60;99.90
23335;DHT22;11839;48.598;8.870;2023-09-19T04:28:39;18.50;99.90
23335;DHT22;11839;48.598;8.870;2023-09-19T04:31:06;18.40;99.90
23335;DHT22;11839;48.598;8.870;2023-09-19T04:33:35;18.50;99.90
23335;DHT22;11839;48.598;8.870;2023-09-19T04:36:02;18.70;99.90
23335;DHT22;11839;48.598;8.870;2023-09-19T04:38:30;18.60;99.90
23335;DHT22;11839;48.598;8.870;2023-09-19T04:40:57;18.30;99.90
23335;DHT22;11839;48.598;8.870;2023-09-19T04:43:25;18.40;99.90
23335;DHT22;11839;48.598;8.870;2023-09-19T04:45:52;18.30;99.90
23335;DHT22;11839;48.598;8.870;2023-09-19T04:48:21;18.20;99.90
23335;DHT22;11839;48.598;8.870;2023-09-19T04:50:50;18.30;99.90
23335;DHT22;11839;48.598;8.870;2023-09-19T04:53:18;18.40;99.90
23335;DHT22;11839;48.598;8.870;2023-09-19T04:55:49;18.50;99.90
23335;DHT22;11839;48.598;8.870;2023-09-19T04:58:15;18.40;99.90
23335;DHT22;11839;48.598;8.870;2023-09-19T05:00:43;18.20;99.90
23335;DHT22;11839;48.598;8.870;2023-09-19T05:03:11;18.00;99.90
23335;DHT22;11839;48.598;8.870;2023-09-19T05:05:38;18.10;99.90
23335;DHT22;11839;48.598;8.870;2023-09-19T05:08:07;18.20;99.90
23335;DHT22;11839;48.598;8.870;2023-09-19T05:10:39;18.30;99.90
23335;DHT22;11839;48.598;8.870;2023-09-19T05:13:07;18.60;99.90
23335;DHT22;11839;48.598;8.870;2023-09-19T05:15:33;18.90;99.90
23335;DHT22;11839;48.598;8.870;2023-09-19T05:18:01;18.90;99.90
23335;DHT22;11839;48.598;8.870;2023-09-19T05:20:29;19.00;99.90
23335;DHT22;11839;48.598;8.870;2023-09-19T05:22:58;19.00;99.90
23335;DHT22;11839;48.598;8.870;2023-09-19T05:25:28;19.00;99.90
23335;DHT22;11839;48.598;8.870;2023-09-19T05:27:57;19.10;99.90
23335;DHT22;11839;48.598;8.870;2023-09-19T05:30:24;19.10;99.90
23335;DHT22;11839;48.598;8.870;2023-09-19T05:32:53;18.80;99.90
23335;DHT22;11839;48.598;8.870;2023-09-19T05:35:21;18.90;99.90
23335;DHT22;11839;48.598;8.870;2023-09-19T05:37:49;18.70;99.90
23335;DHT22;11839;48.598;8.870;2023-09-19T05:40:17;18.80;99.90
23335;DHT22;11839;48.598;8.870;2023-09-19T05:42:45;18.70;99.90
23335;DHT22;11839;48.598;8.870;2023-09-19T05:45:13;18.60;99.90
23335;DHT22;11839;48.598;8.870;2023-09-19T05:47:44;18.70;99.90
23335;DHT22;11839;48.598;8.870;2023-09-19T05:50:12;18.70;99.90
23335;DHT22;11839;48.598;8.870;2023-09-19T05:52:40;18.70;99.90
23335;DHT22;11839;48.598;8.870;2023-09-19T05:55:09;18.60;99.90
23335;DHT22;11839;48.598;8.870;2023-09-19T05:57:37;18.50;99.90
23335;DHT22;11839;48.598;8.870;2023-09-19T06:00:06;18.40;99.90
23335;DHT22;11839;48.598;8.870;2023-09-19T06:02:36;18.50;99.90
23335;DHT22;11839;48.598;8.870;2023-09-19T06:05:04;18.50;99.90
23335;DHT22;11839;48.598;8.870;2023-09-19T06:07:31;18.60;99.90
23335;DHT22;11839;48.598;8.870;2023-09-19T06:10:03;18.70;99.90
23335;DHT22;11839;48.598;8.870;2023-09-19T06:12:32;18.70;99.90
23335;DHT22;11839;48.598;8.870;2023-09-19T06:15:03;18.60;99.90
23335;DHT22;11839;48.598;8.870;2023-09-19T06:17:32;18.70;99.90
23335;DHT22;11839;48.598;8.870;2023-09-19T06:20:04;18.40;99.90
23335;DHT22;11839;48.598;8.870;2023-09-19T06:22:35;18.60;99.90
23335;DHT22;11839;48.598;8.870;2023-09-19T06:25:02;18.70;99.90
23335;DHT22;11839;48.598;8.870;2023-09-19T06:27:29;18.60;99.90
23335;DHT22;11839;48.598;8.870;2023-09-19T06:29:56;18.60;99.90
23335;DHT22;11839;48.598;8.870;2023-09-19T06:32:27;18.70;99.90
23335;DHT22;11839;48.598;8.870;2023-09-19T06:34:55;18.80;99.90
23335;DHT22;11839;48.598;8.870;2023-09-19T06:37:27;18.60;99.90
23335;DHT22;11839;48.598;8.870;2023-09-19T06:39:53;18.80;99.90
23335;DHT22;11839;48.598;8.870;2023-09-19T06:42:20;18.80;99.90
23335;DHT22;11839;48.598;8.870;2023-09-19T06:44:48;18.90;99.90
23335;DHT22;11839;48.598;8.870;2023-09-19T06:47:15;19.10;99.90
23335;DHT22;11839;48.598;8.870;2023-09-19T06:49:42;19.30;99.90
23335;DHT22;11839;48.598;8.870;2023-09-19T06:52:11;19.20;99.90
23335;DHT22;11839;48.598;8.870;2023-09-19T06:54:39;19.20;99.90
23335;DHT22;11839;48.598;8.870;2023-09-19T06:57:07;19.30;99.90
23335;DHT22;11839;48.598;8.870;2023-09-19T06:59:35;19.20;99.90
23335;DHT22;11839;48.598;8.870;2023-09-19T07:02:03;19.30;99.90
23335;DHT22;11839;48.598;8.870;2023-09-19T07:04:31;19.50;99.90
23335;DHT22;11839;48.598;8.870;2023-09-19T07:06:59;19.60;99.90
23335;DHT22;11839;48.598;8.870;2023-09-19T07:09:27;19.60;99.90
23335;DHT22;11839;48.598;8.870;2023-09-19T07:11:53;19.80;99.90
23335;DHT22;11839;48.598;8.870;2023-09-19T07:14:20;19.80;99.90
23335;DHT22;11839;48.598;8.870;2023-09-19T07:16:47;19.90;99.90
23335;DHT22;11839;48.598;8.870;2023-09-19T07:19:15;19.90;99.90
23335;DHT22;11839;48.598;8.870;2023-09-19T07:21:43;20.00;99.90
23335;DHT22;11839;48.598;8.870;2023-09-19T07:24:13;20.00;99.90
23335;DHT22;11839;48.598;8.870;2023-09-19T07:26:41;20.10;99.90
23335;DHT22;11839;48.598;8.870;2023-09-19T07:29:08;20.20;99.90
23335;DHT22;11839;48.598;8.870;2023-09-19T07:31:35;20.10;99.90
23335;DHT22;11839;48.598;8.870;2023-09-19T07:34:01;19.90;99.90
23335;DHT22;11839;48.598;8.870;2023-09-19T07:36:29;19.90;99.90
23335;DHT22;11839;48.598;8.870;2023-09-19T07:38:56;19.90;99.90
23335;DHT22;11839;48.598;8.870;2023-09-19T07:41:23;20.00;99.90
23335;DHT22;11839;48.598;8.870;2023-09-19T07:43:52;19.80;99.90
23335;DHT22;11839;48.598;8.870;2023-09-19T07:46:19;19.80;99.90
23335;DHT22;11839;48.598;8.870;2023-09-19T07:48:46;19.80;99.90
23335;DHT22;11839;48.598;8.870;2023-09-19T07:51:14;20.00;99.90
23335;DHT22;11839;48.598;8.870;2023-09-19T07:53:41;20.10;99.90
23335;DHT22;11839;48.598;8.870;2023-09-19T07:56:10;20.40;99.90
23335;DHT22;11839;48.598;8.870;2023-09-19T07:58:39;20.60;99.90
23335;DHT22;11839;48.598;8.870;2023-09-19T08:01:11;20.40;99.90
23335;DHT22;11839;48.598;8.870;2023-09-19T08:03:39;20.40;99.90
23335;DHT22;11839;48.598;8.870;2023-09-19T08:06:07;20.50;99.90
23335;DHT22;11839;48.598;8.870;2023-09-19T08:08:34;20.60;99.90
23335;DHT22;11839;48.598;8.870;2023-09-19T08:11:03;20.80;99.90
23335;DHT22;11839;48.598;8.870;2023-09-19T08:13:36;20.80;99.90
23335;DHT22;11839;48.598;8.870;2023-09-19T08:16:04;20.70;99.90
23335;DHT22;11839;48.598;8.870;2023-09-19T08:18:32;20.80;99.90
23335;DHT22;11839;48.598;8.870;2023-09-19T08:20:59;20.90;99.90
23335;DHT22;11839;48.598;8.870;2023-09-19T08:23:26;20.90;99.90
23335;DHT22;11839;48.598;8.870;2023-09-19T08:25:56;20.80;99.90
23335;DHT22;11839;48.598;8.870;2023-09-19T08:28:23;20.50;99.90
23335;DHT22;11839;48.598;8.870;2023-09-19T08:30:50;20.50;99.90
23335;DHT22;11839;48.598;8.870;2023-09-19T08:33:18;20.40;99.90
23335;DHT22;11839;48.598;8.870;2023-09-19T08:35:47;20.60;99.90
23335;DHT22;11839;48.598;8.870;2023-09-19T08:38:14;20.50;99.90
23335;DHT22;11839;48.598;8.870;2023-09-19T08:40:41;20.20;99.90
23335;DHT22;11839;48.598;8.870;2023-09-19T08:43:09;20.30;99.90
23335;DHT22;11839;48.598;8.870;2023-09-19T08:45:36;20.40;99.90
23335;DHT22;11839;48.598;8.870;2023-09-19T08:48:17;20.70;99.90
23335;DHT22;11839;48.598;8.870;2023-09-19T08:50:51;20.90;99.90
23335;DHT22;11839;48.598;8.870;2023-09-19T08:53:24;20.80;99.90
23335;DHT22;11839;48.598;8.870;2023-09-19T08:55:53;21.00;99.90
23335;DHT22;11839;48.598;8.870;2023-09-19T08:58:26;21.30;99.90
23335;DHT22;11839;48.598;8.870;2023-09-19T09:00:56;21.20;99.90
23335;DHT22;11839;48.598;8.870;2023-09-19T09:03:27;21.10;99.90
23335;DHT22;11839;48.598;8.870;2023-09-19T09:06:00;21.10;99.90
23335;DHT22;11839;48.598;8.870;2023-09-19T09:08:28;21.00;99.90
23335;DHT22;11839;48.598;8.870;2023-09-19T09:10:55;20.90;99.90
23335;DHT22;11839;48.598;8.870;2023-09-19T09:13:23;21.30;99.90
23335;DHT22;11839;48.598;8.870;2023-09-19T09:15:51;21.50;99.90
23335;DHT22;11839;48.598;8.870;2023-09-19T09:18:19;21.80;99.90
23335;DHT22;11839;48.598;8.870;2023-09-19T09:20:46;21.70;99.90
23335;DHT22;11839;48.598;8.870;2023-09-19T09:23:15;21.50;99.90
23335;DHT22;11839;48.598;8.870;2023-09-19T09:25:50;21.20;99.90
23335;DHT22;11839;48.598;8.870;2023-09-19T09:28:20;21.00;99.90
23335;DHT22;11839;48.598;8.870;2023-09-19T09:30:48;21.30;99.90
23335;DHT22;11839;48.598;8.870;2023-09-19T09:33:16;21.60;99.90
23335;DHT22;11839;48.598;8.870;2023-09-19T09:35:50;21.70;99.90
23335;DHT22;11839;48.598;8.870;2023-09-19T09:38:24;21.60;99.90
23335;DHT22;11839;48.598;8.870;2023-09-19T09:40:54;21.50;99.90
23335;DHT22;11839;48.598;8.870;2023-09-19T09:43:28;21.40;99.90
23335;DHT22;11839;48.598;8.870;2023-09-19T09:46:10;21.60;99.90
23335;DHT22;11839;48.598;8.870;2023-09-19T09:49:00;21.70;99.90
23335;DHT22;11839;48.598;8.870;2023-09-19T09:51:48;21.80;99.90
23335;DHT22;11839;48.598;8.870;2023-09-19T09:54:25;22.00;99.90
23335;DHT22;11839;48.598;8.870;2023-09-19T09:56:59;22.30;99.90
23335;DHT22;11839;48.598;8.870;2023-09-19T09:59:46;22.50;99.90
23335;DHT22;11839;48.598;8.870;2023-09-19T10:02:15;22.40;99.90
23335;DHT22;11839;48.598;8.870;2023-09-19T10:04:49;22.70;99.90
23335;DHT22;11839;48.598;8.870;2023-09-19T10:07:25;22.80;99.90
23335;DHT22;11839;48.598;8.870;2023-09-19T10:10:00;23.00;99.90
23335;DHT22;11839;48.598;8.870;2023-09-19T10:12:43;22.80;99.90
23335;DHT22;11839;48.598;8.870;2023-09-19T10:15:12;23.00;99.90
23335;DHT22;11839;48.598;8.870;2023-09-19T10:17:42;22.80;99.90
23335;DHT22;11839;48.598;8.870;2023-09-19T10:20:12;22.50;99.90
23335;DHT22;11839;48.598;8.870;2023-09-19T10:22:48;22.80;99.90
23335;DHT22;11839;48.598;8.870;2023-09-19T10:25:26;22.90;99.90
23335;DHT22;11839;48.598;8.870;2023-09-19T10:27:54;23.30;99.90
23335;DHT22;11839;48.598;8.870;2023-09-19T10:30:23;23.30;99.90
23335;DHT22;11839;48.598;8.870;2023-09-19T10:32:57;23.00;99.90
23335;DHT22;11839;48.598;8.870;2023-09-19T10:35:26;23.00;99.90
23335;DHT22;11839;48.598;8.870;2023-09-19T10:37:56;22.60;99.90
23335;DHT22;11839;48.598;8.870;2023-09-19T10:40:27;22.60;99.90
23335;DHT22;11839;48.598;8.870;2023-09-19T10:43:00;22.80;99.90
23335;DHT22;11839;48.598;8.870;2023-09-19T10:45:29;23.00;99.90
23335;DHT22;11839;48.598;8.870;2023-09-19T10:47:57;22.60;99.90
23335;DHT22;11839;48.598;8.870;2023-09-19T10:50:24;22.60;99.90
23335;DHT22;11839;48.598;8.870;2023-09-19T10:52:54;22.60;99.90
23335;DHT22;11839;48.598;8.870;2023-09-19T10:55:28;23.10;99.90
23335;DHT22;11839;48.598;8.870;2023-09-19T10:57:55;22.50;99.90
23335;DHT22;11839;48.598;8.870;2023-09-19T11:00:51;22.30;99.90
23335;DHT22;11839;48.598;8.870;2023-09-19T11:03:19;22.10;99.90
23335;DHT22;11839;48.598;8.870;2023-09-19T11:06:09;21.70;99.90
23335;DHT22;11839;48.598;8.870;2023-09-19T11:08:59;21.90;99.90
23335;DHT22;11839;48.598;8.870;2023-09-19T11:11:47;22.20;99.90
23335;DHT22;11839;48.598;8.870;2023-09-19T11:14:41;21.90;99.90
23335;DHT22;11839;48.598;8.870;2023-09-19T11:17:33;21.70;99.90
23335;DHT22;11839;48.598;8.870;2023-09-19T11:20:19;21.70;99.90
23335;DHT22;11839;48.598;8.870;2023-09-19T11:23:20;21.60;99.90
23335;DHT22;11839;48.598;8.870;2023-09-19T11:25:50;21.40;99.90
23335;DHT22;11839;48.598;8.870;2023-09-19T11:28:41;21.70;99.90
23335;DHT22;11839;48.598;8.870;2023-09-19T11:31:41;21.90;99.90
23335;DHT22;11839;48.598;8.870;2023-09-19T11:34:38;22.00;99.90
23335;DHT22;11839;48.598;8.870;2023-09-19T11:40:07;21.80;99.90
23335;DHT22;11839;48.598;8.870;2023-09-19T11:42:43;21.40;99.90
23335;DHT22;11839;48.598;8.870;2023-09-19T11:48:24;21.30;99.90
23335;DHT22;11839;48.598;8.870;2023-09-19T11:50:51;21.70;99.90
23335;DHT22;11839;48.598;8.870;2023-09-19T11:53:20;21.80;99.90
23335;DHT22;11839;48.598;8.870;2023-09-19T11:55:47;22.20;99.90
23335;DHT22;11839;48.598;8.870;2023-09-19T11:58:15;22.80;99.90
23335;DHT22;11839;48.598;8.870;2023-09-19T12:00:45;23.30;99.90
23335;DHT22;11839;48.598;8.870;2023-09-19T12:03:12;23.10;99.90
23335;DHT22;11839;48.598;8.870;2023-09-19T12:05:41;23.00;99.90
23335;DHT22;11839;48.598;8.870;2023-09-19T12:08:08;22.80;99.90
23335;DHT22;11839;48.598;8.870;2023-09-19T12:10:45;22.90;99.90
23335;DHT22;11839;48.598;8.870;2023-09-19T12:13:16;23.10;99.90
23335;DHT22;11839;48.598;8.870;2023-09-19T12:15:43;23.20;99.90
23335;DHT22;11839;48.598;8.870;2023-09-19T12:18:25;23.00;99.90
23335;DHT22;11839;48.598;8.870;2023-09-19T12:20:53;23.10;99.90
23335;DHT22;11839;48.598;8.870;2023-09-19T12:23:20;23.30;99.90
23335;DHT22;11839;48.598;8.870;2023-09-19T12:25:47;23.20;99.90
23335;DHT22;11839;48.598;8.870;2023-09-19T12:28:18;23.50;99.90
23335;DHT22;11839;48.598;8.870;2023-09-19T12:30:47;23.40;99.90
23335;DHT22;11839;48.598;8.870;2023-09-19T12:33:18;23.30;99.90
23335;DHT22;11839;48.598;8.870;2023-09-19T12:35:46;23.40;99.90
23335;DHT22;11839;48.598;8.870;2023-09-19T12:38:24;23.30;99.90
23335;DHT22;11839;48.598;8.870;2023-09-19T12:40:52;23.10;99.90
23335;DHT22;11839;48.598;8.870;2023-09-19T12:43:19;23.10;99.90
23335;DHT22;11839;48.598;8.870;2023-09-19T12:45:47;23.50;99.90
23335;DHT22;11839;48.598;8.870;2023-09-19T12:48:18;24.00;99.90
23335;DHT22;11839;48.598;8.870;2023-09-19T12:51:00;23.80;99.90
23335;DHT22;11839;48.598;8.870;2023-09-19T12:53:33;23.70;99.90
23335;DHT22;11839;48.598;8.870;2023-09-19T12:56:03;23.90;99.90
23335;DHT22;11839;48.598;8.870;2023-09-19T12:58:34;23.80;99.90
23335;DHT22;11839;48.598;8.870;2023-09-19T13:01:14;24.00;99.90
23335;DHT22;11839;48.598;8.870;2023-09-19T13:03:41;24.20;99.90
23335;DHT22;11839;48.598;8.870;2023-09-19T13:06:08;24.40;99.90
23335;DHT22;11839;48.598;8.870;2023-09-19T13:08:37;24.20;99.90
23335;DHT22;11839;48.598;8.870;2023-09-19T13:11:06;24.00;99.90
23335;DHT22;11839;48.598;8.870;2023-09-19T13:13:36;24.40;99.90
23335;DHT22;11839;48.598;8.870;2023-09-19T13:16:04;24.50;99.90
23335;DHT22;11839;48.598;8.870;2023-09-19T13:18:45;25.10;99.90
23335;DHT22;11839;48.598;8.870;2023-09-19T13:21:13;25.20;99.90
23335;DHT22;11839;48.598;8.870;2023-09-19T13:23:50;25.10;99.90
23335;DHT22;11839;48.598;8.870;2023-09-19T13:26:18;25.00;99.90
23335;DHT22;11839;48.598;8.870;2023-09-19T13:28:45;24.50;99.90
23335;DHT22;11839;48.598;8.870;2023-09-19T13:31:13;24.40;99.90
23335;DHT22;11839;48.598;8.870;2023-09-19T13:33:43;24.60;99.90
23335;DHT22;11839;48.598;8.870;2023-09-19T13:36:11;24.70;99.90
23335;DHT22;11839;48.598;8.870;2023-09-19T13:38:38;24.50;99.90
23335;DHT22;11839;48.598;8.870;2023-09-19T13:41:07;24.50;99.90
23335;DHT22;11839;48.598;8.870;2023-09-19T13:43:34;24.10;99.90
23335;DHT22;11839;48.598;8.870;2023-09-19T13:46:01;24.20;99.90
23335;DHT22;11839;48.598;8.870;2023-09-19T13:48:28;24.00;99.90
23335;DHT22;11839;48.598;8.870;2023-09-19T13:50:55;23.80;99.90
23335;DHT22;11839;48.598;8.870;2023-09-19T13:53:22;24.10;99.90
23335;DHT22;11839;48.598;8.870;2023-09-19T13:55:49;24.00;99.90
23335;DHT22;11839;48.598;8.870;2023-09-19T13:58:17;24.40;99.90
23335;DHT22;11839;48.598;8.870;2023-09-19T14:00:44;24.90;99.90
23335;DHT22;11839;48.598;8.870;2023-09-19T14:03:11;24.80;99.90
23335;DHT22;11839;48.598;8.870;2023-09-19T14:05:38;24.50;99.90
23335;DHT22;11839;48.598;8.870;2023-09-19T14:08:05;24.90;99.90
23335;DHT22;11839;48.598;8.870;2023-09-19T14:10:32;25.20;99.90
23335;DHT22;11839;48.598;8.870;2023-09-19T14:13:00;25.50;99.90
23335;DHT22;11839;48.598;8.870;2023-09-19T14:15:28;25.90;99.30
23335;DHT22;11839;48.598;8.870;2023-09-19T14:18:00;26.10;98.40
23335;DHT22;11839;48.598;8.870;2023-09-19T14:20:27;26.50;98.30
23335;DHT22;11839;48.598;8.870;2023-09-19T14:22:54;27.20;96.50
23335;DHT22;11839;48.598;8.870;2023-09-19T14:25:21;26.90;96.80
23335;DHT22;11839;48.598;8.870;2023-09-19T14:27:48;27.20;96.30
23335;DHT22;11839;48.598;8.870;2023-09-19T14:30:15;27.30;96.10
23335;DHT22;11839;48.598;8.870;2023-09-19T14:32:43;27.20;95.10
23335;DHT22;11839;48.598;8.870;2023-09-19T14:35:10;26.80;96.00
23335;DHT22;11839;48.598;8.870;2023-09-19T14:37:40;26.70;96.70
23335;DHT22;11839;48.598;8.870;2023-09-19T14:40:08;26.60;96.60
23335;DHT22;11839;48.598;8.870;2023-09-19T14:42:36;26.50;96.70
23335;DHT22;11839;48.598;8.870;2023-09-19T14:45:04;26.00;96.40
23335;DHT22;11839;48.598;8.870;2023-09-19T14:47:32;25.70;96.70
23335;DHT22;11839;48.598;8.870;2023-09-19T14:50:02;25.60;97.20
23335;DHT22;11839;48.598;8.870;2023-09-19T14:52:32;25.30;97.80
23335;DHT22;11839;48.598;8.870;2023-09-19T14:54:59;25.20;97.70
23335;DHT22;11839;48.598;8.870;2023-09-19T14:57:26;25.30;98.00
23335;DHT22;11839;48.598;8.870;2023-09-19T14:59:53;25.10;97.60
23335;DHT22;11839;48.598;8.870;2023-09-19T15:02:19;24.70;98.40
23335;DHT22;11839;48.598;8.870;2023-09-19T15:04:46;24.60;98.40
23335;DHT22;11839;48.598;8.870;2023-09-19T15:07:15;24.60;98.40
23335;DHT22;11839;48.598;8.870;2023-09-19T15:09:43;24.80;99.10
23335;DHT22;11839;48.598;8.870;2023-09-19T15:12:11;24.90;98.90
23335;DHT22;11839;48.598;8.870;2023-09-19T15:14:40;24.70;98.30
23335;DHT22;11839;48.598;8.870;2023-09-19T15:17:07;24.20;98.60
23335;DHT22;11839;48.598;8.870;2023-09-19T15:19:34;24.30;99.10
23335;DHT22;11839;48.598;8.870;2023-09-19T15:22:03;24.70;99.40
23335;DHT22;11839;48.598;8.870;2023-09-19T15:24:31;24.80;98.50
23335;DHT22;11839;48.598;8.870;2023-09-19T15:26:58;24.80;98.70
23335;DHT22;11839;48.598;8.870;2023-09-19T15:29:25;24.60;98.30
23335;DHT22;11839;48.598;8.870;2023-09-19T15:31:54;24.60;98.80
23335;DHT22;11839;48.598;8.870;2023-09-19T15:34:22;24.80;98.40
23335;DHT22;11839;48.598;8.870;2023-09-19T15:36:49;24.70;98.80
23335;DHT22;11839;48.598;8.870;2023-09-19T15:39:17;24.60;98.80
23335;DHT22;11839;48.598;8.870;2023-09-19T15:41:46;24.60;99.70
23335;DHT22;11839;48.598;8.870;2023-09-19T15:44:16;24.70;99.20
23335;DHT22;11839;48.598;8.870;2023-09-19T15:46:43;24.80;99.10
23335;DHT22;11839;48.598;8.870;2023-09-19T15:49:10;24.90;98.40
23335;DHT22;11839;48.598;8.870;2023-09-19T15:51:37;24.60;98.70
23335;DHT22;11839;48.598;8.870;2023-09-19T15:54:08;24.70;98.60